Station: WOOMERA

  Atmospheric Gas Attenuation - ITU Rec 676-11   --------------- db/100km ---------------
Date Time Temp RH % AH g/m3 Dew Point Wind Direction Speed kph Gust kph Barometer mB Rainfall Since 9am 24GHz 47GHz 76GHz 122GHz 134GHz 241GHz
03 09:30 20.7 42 7.56 7.3 19 24 1018.7 0 17.1 22.7 33.0 86.3 78.2 268.6
03 09:20 20.2 43 7.52 7.2 19 20 1017.9 0 17.0 22.7 33.0 86.4 78.2 268.4
03 09:10 19.7 45 7.64 7.4 20 24 1017.9 0 17.3 23.0 33.7 88.1 80.1 275.0
03 09:00 19.1 47 7.7 7.5 19 30 1018.5 0 17.4 23.3 34.2 89.4 81.4 279.7
03 08:50 18.2 48 7.46 7 28 32 1017.5 0 17.0 23.1 33.6 87.9 79.4 272.5
03 08:40 18.5 48 7.59 7.3 24 32 1017.5 0 17.2 23.2 34.0 88.9 80.7 276.9
03 08:30 18.6 49 7.8 7.7 17 26 1018.7 0 17.7 23.5 34.7 90.9 83.2 285.7
03 08:20 18.2 50 7.77 7.6 24 28 1017.9 0 17.6 23.6 34.8 91.0 83.2 285.7
03 08:10 17.2 53 7.76 7.5 28 33 1017.2 0 17.6 23.8 35.1 92.0 84.1 288.7
03 08:00 17.4 53 7.85 7.7 28 35 1017.5 0 17.8 23.9 35.4 92.7 85.0 291.9
03 07:50 17.1 53 7.71 7.5 30 32 1017.5 0 17.5 23.8 35.0 91.6 83.6 286.9
03 07:40 17.1 53 7.71 7.5 26 32 1017.1 0 17.5 23.7 35.0 91.6 83.5 286.8
03 07:30 16.9 54 7.77 7.5 30 39 1016.7 0 17.7 23.9 35.3 92.4 84.5 290.0
03 07:20 16.8 54 7.72 7.4 24 28 1016.7 0 17.6 23.8 35.1 92.0 84.0 288.2
03 07:10 16.6 54 7.63 7.3 20 24 1016.7 0 17.4 23.7 34.9 91.3 83.1 285.1
03 07:00 16.6 54 7.63 7.3 22 32 1016.7 0 17.4 23.7 34.9 91.3 83.1 285.1
03 06:50 16.5 54 7.58 7.2 20 26 1016.9 0 17.3 23.7 34.8 91.0 82.6 283.3
03 06:40 16.5 54 7.58 7.2 28 35 1016.6 0 17.3 23.7 34.7 90.9 82.5 283.3
03 06:30 16.4 53 7.4 6.8 28 35 1016.2 0 16.9 23.4 34.1 89.2 80.4 275.8
03 06:20 16.5 53 7.44 6.9 26 30 1015.6 0 17.0 23.4 34.2 89.4 80.8 277.0
03 06:10 16.6 52 7.35 6.7 33 39 1015.6 0 16.8 23.3 33.8 88.4 79.6 272.8
03 06:00 16.7 50 7.11 6.2 24 35 1015.6 0 16.3 22.9 32.9 86.0 76.6 262.3
03 05:50 16.7 49 6.96 5.9 20 28 1015.7 0 16.0 22.7 32.3 84.5 74.8 256.0
03 05:40 16.7 48 6.82 5.6 28 33 1015.2 0 15.7 22.5 31.8 83.1 73.1 250.1
03 05:30 16.7 48 6.82 5.6 32 39 1015 0 15.7 22.4 31.8 83.1 73.1 250.0
03 05:20 16.8 48 6.86 5.7 32 35 1015.2 0 15.8 22.5 31.9 83.4 73.5 251.4
03 05:00 16.7 53 7.53 7.1 28 39 1015.1 0 17.2 23.5 34.4 90.1 81.6 280.1
03 04:50 16.7 60 8.53 8.9 24 26 1014.9 0 19.3 25.0 38.2 100.1 94.1 323.6
03 04:40 16.8 57 8.15 8.2 35 44 1014.9 0 18.5 24.4 36.7 96.1 89.2 306.5
03 04:30 16.8 63 9.01 9.7 35 44 1015 0 20.3 25.7 40.0 105.0 100.1 344.7
03 04:20 16.8 66 9.44 10.4 24 32 1015 0 21.2 26.4 41.7 109.5 105.6 364.2
03 04:10 16.9 68 9.78 11 32 39 1015.3 0 21.9 27.0 43.0 113.0 110.0 379.5
03 04:00 17 68 9.84 11.1 35 43 1014.9 0 22.1 27.0 43.2 113.5 110.6 381.7
03 03:50 17 69 9.98 11.3 33 39 1014.7 0 22.4 27.2 43.7 115.0 112.5 388.1
03 03:40 16.9 70 10.07 11.4 33 39 1014.9 0 22.6 27.4 44.2 116.1 113.8 392.8
03 03:30 16.9 70 10.07 11.4 33 46 1015.2 0 22.6 27.4 44.2 116.2 113.8 392.9
03 03:20 17 68 9.84 11.1 24 30 1015.3 0 22.1 27.0 43.2 113.5 110.7 381.8
03 03:10 17.1 67 9.75 10.9 39 44 1015.5 0 21.9 26.9 42.8 112.5 109.3 377.2
03 03:00 17.2 67 9.81 11 32 44 1015.7 0 22.0 26.9 43.0 113.0 110.0 379.5
03 02:50 17.2 66 9.66 10.8 30 33 1015.8 0 21.7 26.7 42.4 111.4 108.0 372.7
03 02:40 17.3 65 9.58 10.7 28 32 1015.3 0 21.5 26.5 42.0 110.3 106.8 368.4
03 02:30 17.4 64 9.48 10.5 28 39 1015.3 0 21.3 26.3 41.6 109.1 105.4 363.4
03 02:20 17.6 62 9.3 10.2 32 41 1015.8 0 20.9 26.0 40.8 107.0 102.8 354.5
03 02:10 17.6 62 9.3 10.2 35 43 1015.7 0 20.9 26.0 40.8 107.0 102.8 354.4
03 02:00 17.8 61 9.26 10.2 32 43 1016 0 20.8 25.9 40.5 106.4 102.1 351.8
03 01:50 17.9 58 8.86 9.5 32 39 1016 0 19.9 25.2 38.9 102.1 96.9 333.6
03 01:40 18.5 56 8.86 9.6 32 39 1016.3 0 19.9 25.1 38.6 101.4 96.1 331.2
03 01:30 18.6 56 8.91 9.7 35 46 1016.4 0 20.0 25.1 38.8 101.8 96.7 333.0
03 01:20 18.9 54 8.75 9.4 35 43 1016.4 0 19.7 24.8 38.0 99.8 94.3 324.7
03 01:10 19.1 53 8.69 9.3 28 35 1016.6 0 19.5 24.7 37.7 98.9 93.3 321.4
03 01:00 19.1 52 8.52 9 32 37 1015.8 0 19.2 24.4 37.1 97.2 91.2 313.8
03 00:50 19.6 50 8.44 8.9 32 35 1016 0 19.0 24.1 36.5 95.8 89.6 308.5
03 00:40 19.8 46 7.86 7.9 33 37 1016.1 0 17.7 23.2 34.3 89.9 82.5 283.4
03 00:30 20.2 44 7.69 7.6 30 39 1016.5 0 17.4 22.9 33.6 87.9 80.1 275.1
03 00:20 20.1 42 7.3 6.8 28 32 1016.9 0 16.6 22.4 32.3 84.3 75.7 259.5
03 00:10 20.3 41 7.21 6.6 32 35 1017 0 16.4 22.2 31.9 83.3 74.4 255.3
03 00:00 20.3 41 7.21 6.6 33 44 1017.3 0 16.4 22.2 31.9 83.3 74.5 255.3
02 23:50 20.4 41 7.25 6.7 30 37 1017.3 0 16.4 22.2 32.0 83.6 74.8 256.6
02 23:40 20.5 44 7.83 7.8 35 39 1017.3 0 17.6 23.1 34.0 89.0 81.5 280.0
02 23:30 20.7 47 8.46 9 32 44 1017.1 0 19.0 23.9 36.2 94.8 88.7 305.5
02 23:20 20.9 48 8.74 9.5 33 35 1017.3 0 19.5 24.3 37.1 97.3 91.9 316.5
02 23:10 21.1 47 8.66 9.4 39 48 1016.7 0 19.4 24.1 36.7 96.2 90.7 312.2
02 23:00 21.4 47 8.81 9.6 35 43 1016.8 0 19.7 24.2 37.1 97.3 92.1 317.4
02 22:50 21.7 45 8.58 9.3 35 41 1016.9 0 19.2 23.8 36.2 94.8 89.0 306.6
02 22:40 22.3 45 8.89 9.8 35 41 1016.6 0 19.8 24.1 37.0 97.0 92.0 317.2
02 22:30 23.2 44 9.15 10.3 33 43 1016.4 0 20.3 24.2 37.5 98.4 94.0 324.4
02 22:20 23.5 45 9.52 10.9 28 32 1016.4 0 21.1 24.7 38.7 101.6 98.1 338.6
02 22:10 23.8 45 9.68 11.2 33 43 1016.1 0 21.4 24.9 39.1 102.8 99.6 344.0
02 22:00 24.2 45 9.9 11.5 32 41 1016.2 0 21.8 25.1 39.7 104.4 101.8 351.5
02 21:50 24.7 44 9.96 11.6 33 39 1016 0 21.9 25.0 39.7 104.3 101.8 351.8
02 21:40 25 44 10.13 11.9 32 37 1015.8 0 22.3 25.2 40.2 105.6 103.5 357.5
02 21:30 25.4 44 10.36 12.3 32 41 1015.6 0 22.7 25.4 40.8 107.3 105.7 365.3
02 21:20 26 43 10.47 12.5 37 41 1015.5 0 22.9 25.4 40.9 107.5 106.2 367.2
02 21:10 26.4 43 10.7 12.8 33 39 1015.3 0 23.4 25.6 41.5 109.2 108.4 374.9
02 21:00 26.8 42 10.69 12.8 32 39 1015.2 0 23.3 25.5 41.3 108.6 107.7 372.6
02 20:50 27.7 40 10.7 12.9 26 35 1015 0 23.3 25.2 40.9 107.5 106.6 368.9
02 20:40 28.7 36 10.17 12.2 22 28 1014.8 0 22.1 24.2 38.5 101.2 99.2 342.9
02 20:30 29.1 30 8.67 9.8 32 43 1014.8 0 19.0 22.0 33.3 87.2 82.1 283.1
02 20:20 29.4 30 8.81 10 32 35 1014.6 0 19.3 22.2 33.6 88.1 83.3 287.3
02 20:10 30.4 26 8.06 8.7 30 35 1014.3 0 17.7 20.9 30.8 80.6 74.3 256.1
02 20:00 30.6 26 8.15 8.9 26 35 1014.3 0 17.9 21.0 31.0 81.2 75.1 258.7
02 19:50 30.5 28 8.73 9.9 24 26 1013.8 0 19.1 21.8 32.9 86.2 81.2 280.3
02 19:40 30.5 28 8.73 9.9 24 28 1013.6 0 19.1 21.8 32.9 86.2 81.2 280.3
02 19:30 30.5 28 8.73 9.9 32 41 1013.6 0 19.1 21.8 32.9 86.2 81.2 280.3
02 19:20 30.5 28 8.73 9.9 30 33 1013.6 0 19.1 21.8 32.9 86.2 81.2 280.3
02 19:10 30.9 28 8.91 10.3 33 39 1013.6 0 19.4 21.9 33.3 87.3 82.7 285.6
02 19:00 31.7 27 8.97 10.4 35 44 1013.5 0 19.5 21.8 33.2 87.0 82.6 285.1
02 18:50 31.7 26 8.64 9.8 35 39 1013.4 0 18.8 21.4 32.1 84.2 79.1 272.9
02 18:40 32.7 24 8.41 9.5 35 41 1013.3 0 18.3 20.8 31.0 81.2 75.8 261.4
02 18:30 32.4 23 7.93 8.6 32 39 1013.1 0 17.4 20.3 29.6 77.6 71.2 245.2
02 18:20 33.1 22 7.88 8.5 37 43 1013 0 17.2 20.1 29.2 76.5 70.1 241.4
02 18:10 33.6 21 7.72 8.3 32 33 1012.8 0 16.9 19.8 28.6 74.8 68.1 234.4
02 18:00 34 22 8.26 9.3 24 35 1012.5 0 18.0 20.4 30.0 78.7 73.1 251.9
02 17:50 33.9 22 8.22 9.2 24 26 1012.3 0 17.9 20.3 30.0 78.5 72.7 250.8
02 17:40 34.2 22 8.35 9.4 28 32 1012.4 0 18.1 20.4 30.2 79.3 73.8 254.5
02 17:30 34.2 21 7.97 8.8 28 35 1012.3 0 17.4 19.9 29.1 76.2 70.0 241.2
02 17:20 34.5 21 8.09 9 22 26 1012.5 0 17.6 20.0 29.4 76.9 70.9 244.6
02 17:10 34.6 19 7.36 7.6 30 39 1012.5 0 16.1 19.1 27.2 71.0 63.8 219.3
02 17:00 34.3 21 8.01 8.8 20 32 1012.4 0 17.4 20.0 29.2 76.4 70.3 242.3
02 16:50 34.3 22 8.39 9.5 22 24 1012.7 0 18.2 20.5 30.3 79.5 74.1 255.6

Last Refresh: 03-Dec-2021 09:40:35

Bureau of Meteorology